sensor_id;sensor_type;location;lat;lon;timestamp;temperature;humidity
21489;DHT22;10906;45.194;5.684;2023-04-15T05:00:20;9.10;99.90
21489;DHT22;10906;45.194;5.684;2023-04-15T05:03:07;9.10;99.90
21489;DHT22;10906;45.194;5.684;2023-04-15T05:05:51;9.10;99.90
21489;DHT22;10906;45.194;5.684;2023-04-15T05:16:52;9.00;99.90
21489;DHT22;10906;45.194;5.684;2023-04-15T05:19:36;9.10;99.90
21489;DHT22;10906;45.194;5.684;2023-04-15T05:27:50;9.00;99.90
21489;DHT22;10906;45.194;5.684;2023-04-15T05:30:35;9.00;99.90
21489;DHT22;10906;45.194;5.684;2023-04-15T05:33:20;8.90;99.90
21489;DHT22;10906;45.194;5.684;2023-04-15T05:36:04;9.00;99.90
21489;DHT22;10906;45.194;5.684;2023-04-15T05:38:49;9.00;99.90
21489;DHT22;10906;45.194;5.684;2023-04-15T05:41:37;9.10;99.90
21489;DHT22;10906;45.194;5.684;2023-04-15T05:44:22;9.10;99.90
21489;DHT22;10906;45.194;5.684;2023-04-15T05:47:06;9.20;99.90
21489;DHT22;10906;45.194;5.684;2023-04-15T05:49:51;9.30;99.90
21489;DHT22;10906;45.194;5.684;2023-04-15T05:52:36;9.20;99.90
21489;DHT22;10906;45.194;5.684;2023-04-15T05:55:20;9.20;99.90
21489;DHT22;10906;45.194;5.684;2023-04-15T05:58:05;9.20;99.90
21489;DHT22;10906;45.194;5.684;2023-04-15T06:00:49;9.20;99.90
21489;DHT22;10906;45.194;5.684;2023-04-15T06:09:04;9.10;99.90
21489;DHT22;10906;45.194;5.684;2023-04-15T06:11:48;9.10;99.90
21489;DHT22;10906;45.194;5.684;2023-04-15T06:14:32;9.10;99.90
21489;DHT22;10906;45.194;5.684;2023-04-15T06:17:17;9.00;99.90
21489;DHT22;10906;45.194;5.684;2023-04-15T06:22:49;9.00;99.90
21489;DHT22;10906;45.194;5.684;2023-04-15T06:25:37;9.00;99.90
21489;DHT22;10906;45.194;5.684;2023-04-15T06:28:21;9.10;99.90
21489;DHT22;10906;45.194;5.684;2023-04-15T06:31:05;9.10;99.90
21489;DHT22;10906;45.194;5.684;2023-04-15T06:33:50;9.10;99.90
21489;DHT22;10906;45.194;5.684;2023-04-15T06:36:37;11.30;99.90
21489;DHT22;10906;45.194;5.684;2023-04-15T06:39:22;9.10;99.90
21489;DHT22;10906;45.194;5.684;2023-04-15T06:42:07;9.00;99.90
21489;DHT22;10906;45.194;5.684;2023-04-15T06:44:51;9.00;99.90
21489;DHT22;10906;45.194;5.684;2023-04-15T06:47:35;9.00;99.90
21489;DHT22;10906;45.194;5.684;2023-04-15T06:50:23;9.10;99.90
21489;DHT22;10906;45.194;5.684;2023-04-15T06:53:07;9.10;99.90
21489;DHT22;10906;45.194;5.684;2023-04-15T06:55:51;9.10;99.90
21489;DHT22;10906;45.194;5.684;2023-04-15T06:58:39;9.20;99.90
21489;DHT22;10906;45.194;5.684;2023-04-15T07:01:25;9.20;99.90
21489;DHT22;10906;45.194;5.684;2023-04-15T07:04:10;9.20;99.90
21489;DHT22;10906;45.194;5.684;2023-04-15T07:06:58;9.30;99.90
21489;DHT22;10906;45.194;5.684;2023-04-15T07:09:45;9.20;99.90
21489;DHT22;10906;45.194;5.684;2023-04-15T07:12:30;9.20;99.90
21489;DHT22;10906;45.194;5.684;2023-04-15T07:15:15;11.10;99.90
21489;DHT22;10906;45.194;5.684;2023-04-15T07:17:59;9.30;99.90
21489;DHT22;10906;45.194;5.684;2023-04-15T07:20:46;9.30;99.90
21489;DHT22;10906;45.194;5.684;2023-04-15T07:23:33;9.10;99.90
21489;DHT22;10906;45.194;5.684;2023-04-15T07:26:18;9.30;99.90
21489;DHT22;10906;45.194;5.684;2023-04-15T07:29:02;9.20;99.90
21489;DHT22;10906;45.194;5.684;2023-04-15T07:31:47;9.20;99.90
21489;DHT22;10906;45.194;5.684;2023-04-15T07:34:31;10.80;99.90
21489;DHT22;10906;45.194;5.684;2023-04-15T07:37:15;9.40;99.90
21489;DHT22;10906;45.194;5.684;2023-04-15T07:40:00;9.40;99.90
21489;DHT22;10906;45.194;5.684;2023-04-15T07:42:45;9.40;99.90
21489;DHT22;10906;45.194;5.684;2023-04-15T07:48:16;9.70;99.90
21489;DHT22;10906;45.194;5.684;2023-04-15T07:51:00;9.70;99.90
21489;DHT22;10906;45.194;5.684;2023-04-15T07:53:46;9.50;99.90
21489;DHT22;10906;45.194;5.684;2023-04-15T07:56:31;9.60;99.90
21489;DHT22;10906;45.194;5.684;2023-04-15T07:59:16;9.50;99.90
21489;DHT22;10906;45.194;5.684;2023-04-15T08:02:01;9.40;99.90
21489;DHT22;10906;45.194;5.684;2023-04-15T08:04:45;9.40;99.90
21489;DHT22;10906;45.194;5.684;2023-04-15T08:10:15;9.00;99.90
21489;DHT22;10906;45.194;5.684;2023-04-15T08:12:59;9.10;99.90
21489;DHT22;10906;45.194;5.684;2023-04-15T08:15:43;9.00;99.90
21489;DHT22;10906;45.194;5.684;2023-04-15T08:18:28;9.00;99.90
21489;DHT22;10906;45.194;5.684;2023-04-15T08:23:57;9.10;99.90
21489;DHT22;10906;45.194;5.684;2023-04-15T08:29:26;9.00;99.90
21489;DHT22;10906;45.194;5.684;2023-04-15T08:32:11;9.00;99.90
21489;DHT22;10906;45.194;5.684;2023-04-15T08:34:56;8.90;99.90
21489;DHT22;10906;45.194;5.684;2023-04-15T08:37:40;8.90;99.90
21489;DHT22;10906;45.194;5.684;2023-04-15T08:40:24;8.90;99.90
21489;DHT22;10906;45.194;5.684;2023-04-15T08:43:26;8.90;99.90
21489;DHT22;10906;45.194;5.684;2023-04-15T08:46:12;8.90;99.90
21489;DHT22;10906;45.194;5.684;2023-04-15T08:48:57;9.00;99.90
21489;DHT22;10906;45.194;5.684;2023-04-15T08:51:49;9.10;99.90
21489;DHT22;10906;45.194;5.684;2023-04-15T08:54:34;9.20;99.90
21489;DHT22;10906;45.194;5.684;2023-04-15T08:57:27;9.20;99.90
21489;DHT22;10906;45.194;5.684;2023-04-15T09:00:12;9.30;99.90
21489;DHT22;10906;45.194;5.684;2023-04-15T09:02:58;9.70;99.90
21489;DHT22;10906;45.194;5.684;2023-04-15T09:11:12;10.10;99.90
21489;DHT22;10906;45.194;5.684;2023-04-15T09:13:59;10.40;99.90
21489;DHT22;10906;45.194;5.684;2023-04-15T09:17:02;10.40;99.90
21489;DHT22;10906;45.194;5.684;2023-04-15T09:19:47;10.30;99.90
21489;DHT22;10906;45.194;5.684;2023-04-15T09:28:07;10.10;99.90
21489;DHT22;10906;45.194;5.684;2023-04-15T09:31:01;10.10;99.90
21489;DHT22;10906;45.194;5.684;2023-04-15T09:33:55;10.10;99.90
21489;DHT22;10906;45.194;5.684;2023-04-15T09:36:52;10.10;99.90
21489;DHT22;10906;45.194;5.684;2023-04-15T09:39:50;10.10;99.90
21489;DHT22;10906;45.194;5.684;2023-04-15T09:42:35;10.30;99.90
21489;DHT22;10906;45.194;5.684;2023-04-15T09:45:21;10.30;99.90
21489;DHT22;10906;45.194;5.684;2023-04-15T09:48:24;10.30;99.90
21489;DHT22;10906;45.194;5.684;2023-04-15T09:51:14;10.50;99.90
21489;DHT22;10906;45.194;5.684;2023-04-15T09:59:28;10.20;99.90
21489;DHT22;10906;45.194;5.684;2023-04-15T10:04:58;9.40;99.90
21489;DHT22;10906;45.194;5.684;2023-04-15T10:07:44;9.40;99.90
21489;DHT22;10906;45.194;5.684;2023-04-15T10:13:28;9.20;99.90
21489;DHT22;10906;45.194;5.684;2023-04-15T10:16:14;9.10;99.90
21489;DHT22;10906;45.194;5.684;2023-04-15T10:19:01;9.00;99.90
21489;DHT22;10906;45.194;5.684;2023-04-15T10:21:46;8.90;99.90
21489;DHT22;10906;45.194;5.684;2023-04-15T10:24:31;8.90;99.90
21489;DHT22;10906;45.194;5.684;2023-04-15T10:30:02;8.80;99.90
21489;DHT22;10906;45.194;5.684;2023-04-15T10:32:47;8.90;99.90
21489;DHT22;10906;45.194;5.684;2023-04-15T10:38:37;9.20;99.90
21489;DHT22;10906;45.194;5.684;2023-04-15T10:41:32;9.20;99.90
21489;DHT22;10906;45.194;5.684;2023-04-15T10:44:19;9.10;99.90
21489;DHT22;10906;45.194;5.684;2023-04-15T10:47:15;9.50;99.90
21489;DHT22;10906;45.194;5.684;2023-04-15T10:50:03;9.40;99.90
21489;DHT22;10906;45.194;5.684;2023-04-15T10:52:50;9.50;99.90
21489;DHT22;10906;45.194;5.684;2023-04-15T10:55:38;9.60;99.90
21489;DHT22;10906;45.194;5.684;2023-04-15T10:58:23;9.70;99.90
21489;DHT22;10906;45.194;5.684;2023-04-15T11:01:10;10.00;99.90
21489;DHT22;10906;45.194;5.684;2023-04-15T11:03:59;9.80;99.90
21489;DHT22;10906;45.194;5.684;2023-04-15T11:06:44;9.80;99.90
21489;DHT22;10906;45.194;5.684;2023-04-15T11:09:34;10.00;99.90
21489;DHT22;10906;45.194;5.684;2023-04-15T11:12:19;10.10;99.90
21489;DHT22;10906;45.194;5.684;2023-04-15T11:15:34;10.50;99.90
21489;DHT22;10906;45.194;5.684;2023-04-15T11:18:22;11.10;99.90
21489;DHT22;10906;45.194;5.684;2023-04-15T11:21:07;11.10;99.90
21489;DHT22;10906;45.194;5.684;2023-04-15T11:23:52;11.40;99.90
21489;DHT22;10906;45.194;5.684;2023-04-15T11:26:37;11.40;99.90
21489;DHT22;10906;45.194;5.684;2023-04-15T11:29:21;11.40;99.90
21489;DHT22;10906;45.194;5.684;2023-04-15T11:32:08;11.30;99.90
21489;DHT22;10906;45.194;5.684;2023-04-15T11:34:53;11.30;99.90
21489;DHT22;10906;45.194;5.684;2023-04-15T11:37:38;11.40;99.90
21489;DHT22;10906;45.194;5.684;2023-04-15T11:40:29;11.30;99.90
21489;DHT22;10906;45.194;5.684;2023-04-15T11:43:18;11.10;99.90
21489;DHT22;10906;45.194;5.684;2023-04-15T11:46:06;11.20;99.90
21489;DHT22;10906;45.194;5.684;2023-04-15T11:48:53;10.70;99.90
21489;DHT22;10906;45.194;5.684;2023-04-15T11:51:44;10.40;99.90
21489;DHT22;10906;45.194;5.684;2023-04-15T11:54:31;10.00;99.90
21489;DHT22;10906;45.194;5.684;2023-04-15T11:57:30;9.70;99.90
21489;DHT22;10906;45.194;5.684;2023-04-15T12:00:15;9.40;99.90
21489;DHT22;10906;45.194;5.684;2023-04-15T12:09:14;8.50;99.90
21489;DHT22;10906;45.194;5.684;2023-04-15T12:11:59;8.90;99.90
21489;DHT22;10906;45.194;5.684;2023-04-15T12:14:44;8.80;99.90
21489;DHT22;10906;45.194;5.684;2023-04-15T12:17:28;8.80;99.90
21489;DHT22;10906;45.194;5.684;2023-04-15T12:20:13;8.70;99.90
21489;DHT22;10906;45.194;5.684;2023-04-15T12:23:07;8.70;99.90
21489;DHT22;10906;45.194;5.684;2023-04-15T12:28:39;9.20;99.90
21489;DHT22;10906;45.194;5.684;2023-04-15T12:31:27;8.90;99.90
21489;DHT22;10906;45.194;5.684;2023-04-15T12:34:13;8.90;99.90
21489;DHT22;10906;45.194;5.684;2023-04-15T12:37:00;9.00;99.90
21489;DHT22;10906;45.194;5.684;2023-04-15T12:39:47;9.30;99.90
21489;DHT22;10906;45.194;5.684;2023-04-15T12:48:04;9.20;99.90
21489;DHT22;10906;45.194;5.684;2023-04-15T12:50:51;9.00;99.90
21489;DHT22;10906;45.194;5.684;2023-04-15T13:10:08;9.80;99.90
21489;DHT22;10906;45.194;5.684;2023-04-15T13:48:41;9.10;99.90
21489;DHT22;10906;45.194;5.684;2023-04-15T13:56:57;9.10;99.90
21489;DHT22;10906;45.194;5.684;2023-04-15T13:59:41;9.10;99.90
21489;DHT22;10906;45.194;5.684;2023-04-15T14:05:11;8.90;99.90
21489;DHT22;10906;45.194;5.684;2023-04-15T14:10:41;9.00;99.90
21489;DHT22;10906;45.194;5.684;2023-04-15T14:13:27;8.30;99.90
21489;DHT22;10906;45.194;5.684;2023-04-15T14:16:11;9.00;99.90
21489;DHT22;10906;45.194;5.684;2023-04-15T14:18:56;9.00;99.90
21489;DHT22;10906;45.194;5.684;2023-04-15T14:21:40;9.10;99.90
21489;DHT22;10906;45.194;5.684;2023-04-15T14:24:25;9.10;99.90
21489;DHT22;10906;45.194;5.684;2023-04-15T14:27:10;9.10;99.90
21489;DHT22;10906;45.194;5.684;2023-04-15T14:29:55;9.90;99.90
21489;DHT22;10906;45.194;5.684;2023-04-15T14:32:40;9.10;99.90
21489;DHT22;10906;45.194;5.684;2023-04-15T14:35:25;9.30;99.90
21489;DHT22;10906;45.194;5.684;2023-04-15T14:38:11;9.00;99.90
21489;DHT22;10906;45.194;5.684;2023-04-15T14:40:56;9.10;99.90
21489;DHT22;10906;45.194;5.684;2023-04-15T14:43:40;9.10;99.90
21489;DHT22;10906;45.194;5.684;2023-04-15T14:46:25;9.10;99.90
21489;DHT22;10906;45.194;5.684;2023-04-15T14:49:10;9.10;99.90
21489;DHT22;10906;45.194;5.684;2023-04-15T14:51:54;9.00;99.90
21489;DHT22;10906;45.194;5.684;2023-04-15T14:54:39;9.00;99.90
21489;DHT22;10906;45.194;5.684;2023-04-15T14:57:23;9.10;99.90
21489;DHT22;10906;45.194;5.684;2023-04-15T15:00:09;9.20;99.90
21489;DHT22;10906;45.194;5.684;2023-04-15T15:02:54;9.20;99.90
21489;DHT22;10906;45.194;5.684;2023-04-15T15:05:44;9.10;99.90
21489;DHT22;10906;45.194;5.684;2023-04-15T15:08:29;9.00;99.90
21489;DHT22;10906;45.194;5.684;2023-04-15T15:11:14;9.00;99.90
21489;DHT22;10906;45.194;5.684;2023-04-15T15:13:59;9.00;99.90
21489;DHT22;10906;45.194;5.684;2023-04-15T15:16:44;10.40;99.90
21489;DHT22;10906;45.194;5.684;2023-04-15T15:19:28;9.00;99.90
21489;DHT22;10906;45.194;5.684;2023-04-15T15:22:12;9.00;99.90
21489;DHT22;10906;45.194;5.684;2023-04-15T15:24:57;9.10;99.90
21489;DHT22;10906;45.194;5.684;2023-04-15T15:27:42;9.10;99.90
21489;DHT22;10906;45.194;5.684;2023-04-15T15:30:26;9.00;99.90
21489;DHT22;10906;45.194;5.684;2023-04-15T15:33:11;9.00;99.90
21489;DHT22;10906;45.194;5.684;2023-04-15T15:35:56;9.00;99.90
21489;DHT22;10906;45.194;5.684;2023-04-15T15:38:41;9.00;99.90
21489;DHT22;10906;45.194;5.684;2023-04-15T15:41:26;9.00;99.90
21489;DHT22;10906;45.194;5.684;2023-04-15T15:44:13;8.90;99.90
21489;DHT22;10906;45.194;5.684;2023-04-15T15:46:57;9.00;99.90
21489;DHT22;10906;45.194;5.684;2023-04-15T15:49:41;9.00;99.90
21489;DHT22;10906;45.194;5.684;2023-04-15T15:52:26;9.00;99.90
21489;DHT22;10906;45.194;5.684;2023-04-15T15:55:10;9.00;99.90
21489;DHT22;10906;45.194;5.684;2023-04-15T15:57:58;8.90;99.90
21489;DHT22;10906;45.194;5.684;2023-04-15T16:00:42;8.90;99.90
21489;DHT22;10906;45.194;5.684;2023-04-15T16:03:27;8.90;99.90
21489;DHT22;10906;45.194;5.684;2023-04-15T16:06:11;8.90;99.90
21489;DHT22;10906;45.194;5.684;2023-04-15T16:09:03;8.00;99.90
21489;DHT22;10906;45.194;5.684;2023-04-15T16:11:50;8.80;99.90
21489;DHT22;10906;45.194;5.684;2023-04-15T16:14:37;8.80;99.90
21489;DHT22;10906;45.194;5.684;2023-04-15T16:17:22;8.80;99.90
21489;DHT22;10906;45.194;5.684;2023-04-15T16:20:06;8.80;99.90
21489;DHT22;10906;45.194;5.684;2023-04-15T16:25:36;8.80;99.90
21489;DHT22;10906;45.194;5.684;2023-04-15T16:28:20;8.70;99.90
21489;DHT22;10906;45.194;5.684;2023-04-15T16:31:10;8.80;99.90
21489;DHT22;10906;45.194;5.684;2023-04-15T16:33:55;8.70;99.90
21489;DHT22;10906;45.194;5.684;2023-04-15T16:36:42;8.70;99.90
21489;DHT22;10906;45.194;5.684;2023-04-15T16:39:29;8.70;99.90
21489;DHT22;10906;45.194;5.684;2023-04-15T16:47:44;8.80;99.90
21489;DHT22;10906;45.194;5.684;2023-04-15T16:53:20;8.70;99.90
21489;DHT22;10906;45.194;5.684;2023-04-15T16:56:04;8.70;99.90
21489;DHT22;10906;45.194;5.684;2023-04-15T17:01:34;8.80;99.90
21489;DHT22;10906;45.194;5.684;2023-04-15T17:04:18;8.80;99.90
21489;DHT22;10906;45.194;5.684;2023-04-15T17:07:03;8.80;99.90
21489;DHT22;10906;45.194;5.684;2023-04-15T17:09:52;8.80;99.90
21489;DHT22;10906;45.194;5.684;2023-04-15T17:12:36;8.80;99.90
21489;DHT22;10906;45.194;5.684;2023-04-15T17:15:21;8.80;99.90
21489;DHT22;10906;45.194;5.684;2023-04-15T17:18:06;8.80;99.90
21489;DHT22;10906;45.194;5.684;2023-04-15T17:20:51;8.80;99.90
21489;DHT22;10906;45.194;5.684;2023-04-15T17:23:39;8.80;99.90
21489;DHT22;10906;45.194;5.684;2023-04-15T17:26:23;8.80;99.90
21489;DHT22;10906;45.194;5.684;2023-04-15T17:31:54;8.80;99.90
21489;DHT22;10906;45.194;5.684;2023-04-15T17:34:44;8.90;99.90
21489;DHT22;10906;45.194;5.684;2023-04-15T17:37:32;8.70;99.90
21489;DHT22;10906;45.194;5.684;2023-04-15T17:40:23;9.00;99.90
21489;DHT22;10906;45.194;5.684;2023-04-15T17:48:37;8.80;99.90
21489;DHT22;10906;45.194;5.684;2023-04-15T17:51:21;8.60;99.90
21489;DHT22;10906;45.194;5.684;2023-04-15T17:54:08;8.70;99.90
21489;DHT22;10906;45.194;5.684;2023-04-15T17:56:53;8.70;99.90
21489;DHT22;10906;45.194;5.684;2023-04-15T17:59:47;8.60;99.90
21489;DHT22;10906;45.194;5.684;2023-04-15T18:05:19;8.60;99.90
21489;DHT22;10906;45.194;5.684;2023-04-15T18:08:04;8.60;99.90
21489;DHT22;10906;45.194;5.684;2023-04-15T18:10:49;8.60;99.90
21489;DHT22;10906;45.194;5.684;2023-04-15T18:13:34;8.70;99.90
21489;DHT22;10906;45.194;5.684;2023-04-15T18:16:18;8.60;99.90
21489;DHT22;10906;45.194;5.684;2023-04-15T18:19:06;8.70;99.90
21489;DHT22;10906;45.194;5.684;2023-04-15T18:21:52;8.50;99.90
21489;DHT22;10906;45.194;5.684;2023-04-15T18:24:37;8.60;99.90
21489;DHT22;10906;45.194;5.684;2023-04-15T18:27:21;8.50;99.90
21489;DHT22;10906;45.194;5.684;2023-04-15T18:30:07;8.40;99.90
21489;DHT22;10906;45.194;5.684;2023-04-15T18:32:52;8.50;99.90
21489;DHT22;10906;45.194;5.684;2023-04-15T18:35:37;8.50;99.90
21489;DHT22;10906;45.194;5.684;2023-04-15T18:38:31;8.50;99.90
21489;DHT22;10906;45.194;5.684;2023-04-15T18:41:18;9.20;99.90
21489;DHT22;10906;45.194;5.684;2023-04-15T18:44:08;8.50;99.90
21489;DHT22;10906;45.194;5.684;2023-04-15T18:46:57;8.50;99.90
21489;DHT22;10906;45.194;5.684;2023-04-15T18:49:41;8.50;99.90
21489;DHT22;10906;45.194;5.684;2023-04-15T18:52:26;8.50;99.90
21489;DHT22;10906;45.194;5.684;2023-04-15T18:55:10;8.50;99.90
21489;DHT22;10906;45.194;5.684;2023-04-15T18:58:00;9.60;99.90
21489;DHT22;10906;45.194;5.684;2023-04-15T19:00:45;9.70;99.90
21489;DHT22;10906;45.194;5.684;2023-04-15T19:03:30;8.50;99.90
21489;DHT22;10906;45.194;5.684;2023-04-15T19:06:15;8.50;99.90
21489;DHT22;10906;45.194;5.684;2023-04-15T19:09:00;8.50;99.90
21489;DHT22;10906;45.194;5.684;2023-04-15T19:11:47;8.50;99.90
21489;DHT22;10906;45.194;5.684;2023-04-15T19:14:32;8.50;99.90
21489;DHT22;10906;45.194;5.684;2023-04-15T19:20:22;8.50;99.90
21489;DHT22;10906;45.194;5.684;2023-04-15T19:28:49;8.50;99.90
21489;DHT22;10906;45.194;5.684;2023-04-15T19:32:11;8.30;99.90
21489;DHT22;10906;45.194;5.684;2023-04-15T19:35:19;8.50;99.90
21489;DHT22;10906;45.194;5.684;2023-04-15T19:41:09;8.50;99.90
21489;DHT22;10906;45.194;5.684;2023-04-15T19:43:54;8.50;99.90
21489;DHT22;10906;45.194;5.684;2023-04-15T19:46:59;8.40;99.90
21489;DHT22;10906;45.194;5.684;2023-04-15T19:49:49;8.40;99.90
21489;DHT22;10906;45.194;5.684;2023-04-15T19:52:52;8.50;99.90
21489;DHT22;10906;45.194;5.684;2023-04-15T19:59:06;8.40;99.90
21489;DHT22;10906;45.194;5.684;2023-04-15T20:01:51;8.50;99.90
21489;DHT22;10906;45.194;5.684;2023-04-15T20:04:39;8.40;99.90
21489;DHT22;10906;45.194;5.684;2023-04-15T20:07:26;8.40;99.90
21489;DHT22;10906;45.194;5.684;2023-04-15T20:10:25;8.40;99.90
21489;DHT22;10906;45.194;5.684;2023-04-15T20:13:10;8.40;99.90
21489;DHT22;10906;45.194;5.684;2023-04-15T20:15:59;8.40;99.90
21489;DHT22;10906;45.194;5.684;2023-04-15T20:18:44;8.50;99.90
21489;DHT22;10906;45.194;5.684;2023-04-15T20:21:31;8.50;99.90
21489;DHT22;10906;45.194;5.684;2023-04-15T20:24:19;8.40;99.90
21489;DHT22;10906;45.194;5.684;2023-04-15T20:29:49;8.50;99.90
21489;DHT22;10906;45.194;5.684;2023-04-15T20:32:35;8.50;99.90
21489;DHT22;10906;45.194;5.684;2023-04-15T20:35:27;8.40;99.90
21489;DHT22;10906;45.194;5.684;2023-04-15T20:38:14;8.40;99.90
21489;DHT22;10906;45.194;5.684;2023-04-15T20:41:01;8.40;99.90
21489;DHT22;10906;45.194;5.684;2023-04-15T20:43:54;8.50;99.90
21489;DHT22;10906;45.194;5.684;2023-04-15T20:46:48;8.40;99.90
21489;DHT22;10906;45.194;5.684;2023-04-15T20:49:37;8.50;99.90
21489;DHT22;10906;45.194;5.684;2023-04-15T20:52:22;8.40;99.90
21489;DHT22;10906;45.194;5.684;2023-04-15T20:55:16;8.50;99.90
21489;DHT22;10906;45.194;5.684;2023-04-15T21:00:45;8.40;99.90
21489;DHT22;10906;45.194;5.684;2023-04-15T21:03:36;8.40;99.90
21489;DHT22;10906;45.194;5.684;2023-04-15T21:06:31;8.50;99.90
21489;DHT22;10906;45.194;5.684;2023-04-15T21:09:15;8.40;99.90
21489;DHT22;10906;45.194;5.684;2023-04-15T21:12:03;8.40;99.90
21489;DHT22;10906;45.194;5.684;2023-04-15T21:14:51;8.30;99.90
21489;DHT22;10906;45.194;5.684;2023-04-15T21:17:40;8.30;99.90
21489;DHT22;10906;45.194;5.684;2023-04-15T21:20:32;8.30;99.90
21489;DHT22;10906;45.194;5.684;2023-04-15T21:23:19;8.30;99.90
21489;DHT22;10906;45.194;5.684;2023-04-15T21:26:06;8.20;99.90
21489;DHT22;10906;45.194;5.684;2023-04-15T21:28:58;8.40;99.90
21489;DHT22;10906;45.194;5.684;2023-04-15T21:31:46;8.30;99.90
21489;DHT22;10906;45.194;5.684;2023-04-15T21:34:34;8.40;99.90
21489;DHT22;10906;45.194;5.684;2023-04-15T21:37:25;8.40;99.90
21489;DHT22;10906;45.194;5.684;2023-04-15T21:40:17;8.40;99.90
21489;DHT22;10906;45.194;5.684;2023-04-15T21:43:02;8.40;99.90
21489;DHT22;10906;45.194;5.684;2023-04-15T21:45:54;8.40;99.90
21489;DHT22;10906;45.194;5.684;2023-04-15T21:48:42;6.40;99.90
21489;DHT22;10906;45.194;5.684;2023-04-15T21:51:29;8.40;99.90
21489;DHT22;10906;45.194;5.684;2023-04-15T21:54:14;8.30;99.90
21489;DHT22;10906;45.194;5.684;2023-04-15T21:56:59;8.60;99.90
21489;DHT22;10906;45.194;5.684;2023-04-15T21:59:44;8.30;99.90
